Weather at Montana

Public forecast

Using degrees Celsius for public forecast. Weather courtesy of forecast.io.

Closest aviation weather report (METAR) to Montana

Closest report is Sofia Airport, 41.8 nm (77.3 km) S.

2023/11/30 17:00 (retrieved 22 minutes ago)

LBSF 301700Z VRB03KT 5000 BR NSC 00/M01 Q1015 TEMPO 3000 BR

Closest aviation forecast (TAF) to Montana

Closest forecast is Sofia Airport, 41.8 nm (77.3 km) S.

2023/11/30 12:18 (retrieved 5 hours ago)

TAF LBSF 301100Z 3012/0112 10010KT 9999 SCT010 BKN050 BECMG 3019/3021 VRB04KT TEMPO 0100/0106 3000 BR SCT005 PROB40 0102/0106 0500 FZFG BKN002